sensor_id;sensor_type;location;lat;lon;timestamp;temperature;humidity
10306;DHT22;5198;52.382;9.020;2022-11-12T00:01:03;6.20;99.90
10306;DHT22;5198;52.382;9.020;2022-11-12T00:05:06;6.20;99.90
10306;DHT22;5198;52.382;9.020;2022-11-12T00:09:09;6.10;99.90
10306;DHT22;5198;52.382;9.020;2022-11-12T00:13:12;6.10;99.90
10306;DHT22;5198;52.382;9.020;2022-11-12T00:17:17;6.00;99.90
10306;DHT22;5198;52.382;9.020;2022-11-12T00:21:19;5.90;99.90
10306;DHT22;5198;52.382;9.020;2022-11-12T00:25:22;5.90;99.90
10306;DHT22;5198;52.382;9.020;2022-11-12T00:29:25;5.80;99.90
10306;DHT22;5198;52.382;9.020;2022-11-12T00:33:30;5.70;99.90
10306;DHT22;5198;52.382;9.020;2022-11-12T00:37:33;5.70;99.90
10306;DHT22;5198;52.382;9.020;2022-11-12T00:41:35;5.60;99.90
10306;DHT22;5198;52.382;9.020;2022-11-12T00:45:38;5.60;99.90
10306;DHT22;5198;52.382;9.020;2022-11-12T00:49:42;5.50;99.90
10306;DHT22;5198;52.382;9.020;2022-11-12T00:53:46;5.50;99.90
10306;DHT22;5198;52.382;9.020;2022-11-12T00:57:49;5.50;99.90
10306;DHT22;5198;52.382;9.020;2022-11-12T01:01:51;5.40;99.90
10306;DHT22;5198;52.382;9.020;2022-11-12T01:06:01;5.40;99.90
10306;DHT22;5198;52.382;9.020;2022-11-12T01:10:04;5.40;99.90
10306;DHT22;5198;52.382;9.020;2022-11-12T01:14:08;5.40;99.90
10306;DHT22;5198;52.382;9.020;2022-11-12T01:18:11;5.40;99.90
10306;DHT22;5198;52.382;9.020;2022-11-12T01:22:15;5.40;99.90
10306;DHT22;5198;52.382;9.020;2022-11-12T01:26:19;5.40;99.90
10306;DHT22;5198;52.382;9.020;2022-11-12T01:30:23;5.50;99.90
10306;DHT22;5198;52.382;9.020;2022-11-12T01:34:26;5.50;99.90
10306;DHT22;5198;52.382;9.020;2022-11-12T01:38:33;5.50;99.90
10306;DHT22;5198;52.382;9.020;2022-11-12T01:42:36;5.50;99.90
10306;DHT22;5198;52.382;9.020;2022-11-12T01:46:42;5.40;99.90
10306;DHT22;5198;52.382;9.020;2022-11-12T01:50:46;5.40;99.90
10306;DHT22;5198;52.382;9.020;2022-11-12T01:54:51;5.40;99.90
10306;DHT22;5198;52.382;9.020;2022-11-12T01:58:56;5.30;99.90
10306;DHT22;5198;52.382;9.020;2022-11-12T02:03:01;5.30;99.90
10306;DHT22;5198;52.382;9.020;2022-11-12T02:07:04;5.30;99.90
10306;DHT22;5198;52.382;9.020;2022-11-12T02:11:13;5.30;99.90
10306;DHT22;5198;52.382;9.020;2022-11-12T02:15:17;5.30;99.90
10306;DHT22;5198;52.382;9.020;2022-11-12T02:19:20;5.30;99.90
10306;DHT22;5198;52.382;9.020;2022-11-12T02:23:24;5.30;99.90
10306;DHT22;5198;52.382;9.020;2022-11-12T02:27:27;5.30;99.90
10306;DHT22;5198;52.382;9.020;2022-11-12T02:31:30;5.30;99.90
10306;DHT22;5198;52.382;9.020;2022-11-12T02:35:33;5.30;99.90
10306;DHT22;5198;52.382;9.020;2022-11-12T02:39:37;5.30;99.90
10306;DHT22;5198;52.382;9.020;2022-11-12T02:43:40;5.30;99.90
10306;DHT22;5198;52.382;9.020;2022-11-12T02:47:43;5.30;99.90
10306;DHT22;5198;52.382;9.020;2022-11-12T02:51:46;5.30;99.90
10306;DHT22;5198;52.382;9.020;2022-11-12T02:55:50;5.30;99.90
10306;DHT22;5198;52.382;9.020;2022-11-12T02:59:53;5.20;99.90
10306;DHT22;5198;52.382;9.020;2022-11-12T03:03:56;5.20;99.90
10306;DHT22;5198;52.382;9.020;2022-11-12T03:08:00;5.20;99.90
10306;DHT22;5198;52.382;9.020;2022-11-12T03:12:05;5.20;99.90
10306;DHT22;5198;52.382;9.020;2022-11-12T03:16:08;5.10;99.90
10306;DHT22;5198;52.382;9.020;2022-11-12T03:20:11;5.10;99.90
10306;DHT22;5198;52.382;9.020;2022-11-12T03:24:14;5.10;99.90
10306;DHT22;5198;52.382;9.020;2022-11-12T03:28:18;5.00;99.90
10306;DHT22;5198;52.382;9.020;2022-11-12T03:36:24;4.90;99.90
10306;DHT22;5198;52.382;9.020;2022-11-12T03:40:27;4.90;99.90
10306;DHT22;5198;52.382;9.020;2022-11-12T03:44:31;4.90;99.90
10306;DHT22;5198;52.382;9.020;2022-11-12T03:48:34;4.80;99.90
10306;DHT22;5198;52.382;9.020;2022-11-12T03:52:37;4.80;99.90
10306;DHT22;5198;52.382;9.020;2022-11-12T03:56:40;4.70;99.90
10306;DHT22;5198;52.382;9.020;2022-11-12T04:00:45;4.60;99.90
10306;DHT22;5198;52.382;9.020;2022-11-12T04:04:47;4.50;99.90
10306;DHT22;5198;52.382;9.020;2022-11-12T04:09:08;4.50;99.90
10306;DHT22;5198;52.382;9.020;2022-11-12T04:13:11;4.40;99.90
10306;DHT22;5198;52.382;9.020;2022-11-12T04:17:30;4.40;99.90
10306;DHT22;5198;52.382;9.020;2022-11-12T04:21:52;4.40;99.90
10306;DHT22;5198;52.382;9.020;2022-11-12T04:25:58;4.30;99.90
10306;DHT22;5198;52.382;9.020;2022-11-12T04:30:18;4.30;99.90
10306;DHT22;5198;52.382;9.020;2022-11-12T04:34:23;4.40;99.90
10306;DHT22;5198;52.382;9.020;2022-11-12T04:38:31;4.30;99.90
10306;DHT22;5198;52.382;9.020;2022-11-12T04:42:34;4.30;99.90
10306;DHT22;5198;52.382;9.020;2022-11-12T04:46:54;4.30;99.90
10306;DHT22;5198;52.382;9.020;2022-11-12T04:51:00;4.30;99.90
10306;DHT22;5198;52.382;9.020;2022-11-12T04:55:03;4.30;99.90
10306;DHT22;5198;52.382;9.020;2022-11-12T05:03:09;4.10;99.90
10306;DHT22;5198;52.382;9.020;2022-11-12T05:07:13;4.10;99.90
10306;DHT22;5198;52.382;9.020;2022-11-12T05:11:16;4.00;99.90
10306;DHT22;5198;52.382;9.020;2022-11-12T05:15:19;3.90;99.90
10306;DHT22;5198;52.382;9.020;2022-11-12T05:19:22;3.90;99.90
10306;DHT22;5198;52.382;9.020;2022-11-12T05:23:26;3.80;99.90
10306;DHT22;5198;52.382;9.020;2022-11-12T05:27:29;3.80;99.90
10306;DHT22;5198;52.382;9.020;2022-11-12T05:31:32;3.80;99.90
10306;DHT22;5198;52.382;9.020;2022-11-12T05:35:35;3.80;99.90
10306;DHT22;5198;52.382;9.020;2022-11-12T05:39:39;3.80;99.90
10306;DHT22;5198;52.382;9.020;2022-11-12T05:43:42;3.80;99.90
10306;DHT22;5198;52.382;9.020;2022-11-12T05:47:46;3.70;99.90
10306;DHT22;5198;52.382;9.020;2022-11-12T05:51:49;3.70;99.90
10306;DHT22;5198;52.382;9.020;2022-11-12T05:55:53;3.70;99.90
10306;DHT22;5198;52.382;9.020;2022-11-12T05:59:56;3.70;99.90
10306;DHT22;5198;52.382;9.020;2022-11-12T06:03:59;3.70;99.90
10306;DHT22;5198;52.382;9.020;2022-11-12T06:08:02;3.60;99.90
10306;DHT22;5198;52.382;9.020;2022-11-12T06:12:08;3.50;99.90
10306;DHT22;5198;52.382;9.020;2022-11-12T06:20:14;3.40;99.90
10306;DHT22;5198;52.382;9.020;2022-11-12T06:24:17;3.30;99.90
10306;DHT22;5198;52.382;9.020;2022-11-12T06:28:21;3.30;99.90
10306;DHT22;5198;52.382;9.020;2022-11-12T06:32:24;3.30;99.90
10306;DHT22;5198;52.382;9.020;2022-11-12T06:36:27;3.20;99.90
10306;DHT22;5198;52.382;9.020;2022-11-12T06:40:30;3.20;99.90
10306;DHT22;5198;52.382;9.020;2022-11-12T06:44:34;3.20;99.90
10306;DHT22;5198;52.382;9.020;2022-11-12T06:48:39;3.20;99.90
10306;DHT22;5198;52.382;9.020;2022-11-12T06:52:43;3.20;99.90
10306;DHT22;5198;52.382;9.020;2022-11-12T06:56:45;3.20;99.90
10306;DHT22;5198;52.382;9.020;2022-11-12T07:00:50;3.20;99.90
10306;DHT22;5198;52.382;9.020;2022-11-12T07:04:53;3.20;99.90
10306;DHT22;5198;52.382;9.020;2022-11-12T07:08:57;3.20;99.90
10306;DHT22;5198;52.382;9.020;2022-11-12T07:13:00;3.20;99.90
10306;DHT22;5198;52.382;9.020;2022-11-12T07:17:04;3.20;99.90
10306;DHT22;5198;52.382;9.020;2022-11-12T07:21:08;3.20;99.90
10306;DHT22;5198;52.382;9.020;2022-11-12T07:25:12;3.20;99.90
10306;DHT22;5198;52.382;9.020;2022-11-12T07:29:15;3.30;99.90
10306;DHT22;5198;52.382;9.020;2022-11-12T07:33:37;3.30;99.90
10306;DHT22;5198;52.382;9.020;2022-11-12T07:37:40;3.30;99.90
10306;DHT22;5198;52.382;9.020;2022-11-12T07:41:43;3.40;99.90
10306;DHT22;5198;52.382;9.020;2022-11-12T07:45:46;3.40;99.90
10306;DHT22;5198;52.382;9.020;2022-11-12T07:49:51;3.40;99.90
10306;DHT22;5198;52.382;9.020;2022-11-12T07:53:54;3.50;99.90
10306;DHT22;5198;52.382;9.020;2022-11-12T07:58:00;3.50;99.90
10306;DHT22;5198;52.382;9.020;2022-11-12T08:02:03;3.50;99.90
10306;DHT22;5198;52.382;9.020;2022-11-12T08:06:07;3.60;99.90
10306;DHT22;5198;52.382;9.020;2022-11-12T08:10:11;3.60;99.90
10306;DHT22;5198;52.382;9.020;2022-11-12T08:14:14;3.70;99.90
10306;DHT22;5198;52.382;9.020;2022-11-12T08:18:17;3.70;99.90
10306;DHT22;5198;52.382;9.020;2022-11-12T08:22:23;3.80;99.90
10306;DHT22;5198;52.382;9.020;2022-11-12T08:26:32;3.90;99.90
10306;DHT22;5198;52.382;9.020;2022-11-12T08:30:35;4.00;99.90
10306;DHT22;5198;52.382;9.020;2022-11-12T08:34:40;4.10;99.90
10306;DHT22;5198;52.382;9.020;2022-11-12T08:38:45;4.20;99.90
10306;DHT22;5198;52.382;9.020;2022-11-12T08:42:48;4.20;99.90
10306;DHT22;5198;52.382;9.020;2022-11-12T08:46:57;4.40;99.90
10306;DHT22;5198;52.382;9.020;2022-11-12T08:51:00;4.50;99.90
10306;DHT22;5198;52.382;9.020;2022-11-12T08:55:06;4.70;99.90
10306;DHT22;5198;52.382;9.020;2022-11-12T08:59:09;4.80;99.90
10306;DHT22;5198;52.382;9.020;2022-11-12T09:03:12;4.90;99.90
10306;DHT22;5198;52.382;9.020;2022-11-12T09:07:15;5.10;99.90
10306;DHT22;5198;52.382;9.020;2022-11-12T09:11:39;5.20;99.90
10306;DHT22;5198;52.382;9.020;2022-11-12T09:15:42;5.40;99.90
10306;DHT22;5198;52.382;9.020;2022-11-12T09:19:45;5.60;99.90
10306;DHT22;5198;52.382;9.020;2022-11-12T09:23:48;5.70;99.90
10306;DHT22;5198;52.382;9.020;2022-11-12T09:27:52;5.90;99.90
10306;DHT22;5198;52.382;9.020;2022-11-12T09:31:55;6.10;99.90
10306;DHT22;5198;52.382;9.020;2022-11-12T09:36:00;6.30;99.90
10306;DHT22;5198;52.382;9.020;2022-11-12T09:40:03;6.50;99.90
10306;DHT22;5198;52.382;9.020;2022-11-12T09:44:09;6.70;99.90
10306;DHT22;5198;52.382;9.020;2022-11-12T09:48:14;6.90;99.90
10306;DHT22;5198;52.382;9.020;2022-11-12T09:52:20;7.10;99.90
10306;DHT22;5198;52.382;9.020;2022-11-12T09:56:25;7.30;99.90
10306;DHT22;5198;52.382;9.020;2022-11-12T10:00:31;7.50;99.90
10306;DHT22;5198;52.382;9.020;2022-11-12T10:04:48;7.60;99.90
10306;DHT22;5198;52.382;9.020;2022-11-12T10:08:53;7.80;99.90
10306;DHT22;5198;52.382;9.020;2022-11-12T10:13:04;7.90;99.90
10306;DHT22;5198;52.382;9.020;2022-11-12T10:17:13;8.10;99.90
10306;DHT22;5198;52.382;9.020;2022-11-12T10:21:20;8.30;99.90
10306;DHT22;5198;52.382;9.020;2022-11-12T10:25:25;8.60;99.90
10306;DHT22;5198;52.382;9.020;2022-11-12T10:29:29;8.80;99.90
10306;DHT22;5198;52.382;9.020;2022-11-12T10:33:34;9.10;99.90
10306;DHT22;5198;52.382;9.020;2022-11-12T10:37:38;9.30;99.90
10306;DHT22;5198;52.382;9.020;2022-11-12T10:41:44;9.60;99.90
10306;DHT22;5198;52.382;9.020;2022-11-12T10:45:47;9.70;99.90
10306;DHT22;5198;52.382;9.020;2022-11-12T10:50:00;9.80;99.90
10306;DHT22;5198;52.382;9.020;2022-11-12T10:54:18;10.00;99.90
10306;DHT22;5198;52.382;9.020;2022-11-12T10:58:21;10.10;99.90
10306;DHT22;5198;52.382;9.020;2022-11-12T11:02:24;10.20;99.90
10306;DHT22;5198;52.382;9.020;2022-11-12T11:06:28;10.30;99.90
10306;DHT22;5198;52.382;9.020;2022-11-12T11:10:32;10.50;99.90
10306;DHT22;5198;52.382;9.020;2022-11-12T11:14:35;10.60;99.90
10306;DHT22;5198;52.382;9.020;2022-11-12T11:18:40;10.70;99.90
10306;DHT22;5198;52.382;9.020;2022-11-12T11:22:45;10.80;99.90
10306;DHT22;5198;52.382;9.020;2022-11-12T11:26:53;10.90;99.90
10306;DHT22;5198;52.382;9.020;2022-11-12T11:30:59;11.00;99.90
10306;DHT22;5198;52.382;9.020;2022-11-12T11:35:08;11.10;99.90
10306;DHT22;5198;52.382;9.020;2022-11-12T11:39:16;11.10;99.90
10306;DHT22;5198;52.382;9.020;2022-11-12T11:43:26;11.20;99.90
10306;DHT22;5198;52.382;9.020;2022-11-12T11:47:33;11.30;99.90
10306;DHT22;5198;52.382;9.020;2022-11-12T11:51:58;11.40;99.90
10306;DHT22;5198;52.382;9.020;2022-11-12T11:56:07;11.50;99.90
10306;DHT22;5198;52.382;9.020;2022-11-12T12:00:13;11.60;99.90
10306;DHT22;5198;52.382;9.020;2022-11-12T12:04:26;11.80;99.90
10306;DHT22;5198;52.382;9.020;2022-11-12T12:08:40;12.10;99.90
10306;DHT22;5198;52.382;9.020;2022-11-12T12:12:52;12.30;99.90
10306;DHT22;5198;52.382;9.020;2022-11-12T12:17:00;12.50;99.90
10306;DHT22;5198;52.382;9.020;2022-11-12T12:21:08;12.60;99.90
10306;DHT22;5198;52.382;9.020;2022-11-12T12:25:13;12.70;99.90
10306;DHT22;5198;52.382;9.020;2022-11-12T12:29:20;13.00;99.90
10306;DHT22;5198;52.382;9.020;2022-11-12T12:33:26;13.30;99.90
10306;DHT22;5198;52.382;9.020;2022-11-12T12:37:32;13.50;99.90
10306;DHT22;5198;52.382;9.020;2022-11-12T12:41:38;13.70;99.90
10306;DHT22;5198;52.382;9.020;2022-11-12T12:45:45;13.70;99.90
10306;DHT22;5198;52.382;9.020;2022-11-12T12:49:49;13.80;99.90
10306;DHT22;5198;52.382;9.020;2022-11-12T12:53:52;13.80;99.90
10306;DHT22;5198;52.382;9.020;2022-11-12T12:57:57;13.80;99.90
10306;DHT22;5198;52.382;9.020;2022-11-12T13:02:01;13.80;99.90
10306;DHT22;5198;52.382;9.020;2022-11-12T13:06:05;13.80;99.90
10306;DHT22;5198;52.382;9.020;2022-11-12T13:18:58;13.60;99.90
10306;DHT22;5198;52.382;9.020;2022-11-12T13:23:06;13.50;99.90
10306;DHT22;5198;52.382;9.020;2022-11-12T13:27:10;13.50;99.90
10306;DHT22;5198;52.382;9.020;2022-11-12T13:31:23;13.50;99.90
10306;DHT22;5198;52.382;9.020;2022-11-12T13:35:28;13.40;99.90
10306;DHT22;5198;52.382;9.020;2022-11-12T13:39:33;13.40;99.90
10306;DHT22;5198;52.382;9.020;2022-11-12T13:43:37;13.30;99.90
10306;DHT22;5198;52.382;9.020;2022-11-12T13:47:41;13.20;99.90
10306;DHT22;5198;52.382;9.020;2022-11-12T13:51:46;13.10;99.90
10306;DHT22;5198;52.382;9.020;2022-11-12T13:55:53;13.00;99.90
10306;DHT22;5198;52.382;9.020;2022-11-12T14:00:06;12.90;99.90
10306;DHT22;5198;52.382;9.020;2022-11-12T14:04:10;12.80;99.90
10306;DHT22;5198;52.382;9.020;2022-11-12T14:08:23;12.70;99.90
10306;DHT22;5198;52.382;9.020;2022-11-12T14:12:36;12.60;99.90
10306;DHT22;5198;52.382;9.020;2022-11-12T14:16:44;12.50;99.90
10306;DHT22;5198;52.382;9.020;2022-11-12T14:20:50;12.40;99.90
10306;DHT22;5198;52.382;9.020;2022-11-12T14:24:58;12.30;99.90
10306;DHT22;5198;52.382;9.020;2022-11-12T14:29:01;12.20;99.90
10306;DHT22;5198;52.382;9.020;2022-11-12T14:33:07;12.20;99.90
10306;DHT22;5198;52.382;9.020;2022-11-12T14:37:14;12.10;99.90
10306;DHT22;5198;52.382;9.020;2022-11-12T14:41:31;12.00;99.90
10306;DHT22;5198;52.382;9.020;2022-11-12T14:45:35;11.90;99.90
10306;DHT22;5198;52.382;9.020;2022-11-12T14:49:38;11.80;99.90
10306;DHT22;5198;52.382;9.020;2022-11-12T14:53:46;11.60;99.90
10306;DHT22;5198;52.382;9.020;2022-11-12T14:57:52;11.50;99.90
10306;DHT22;5198;52.382;9.020;2022-11-12T15:02:03;11.40;99.90
10306;DHT22;5198;52.382;9.020;2022-11-12T15:06:28;11.30;99.90
10306;DHT22;5198;52.382;9.020;2022-11-12T15:10:32;11.20;99.90
10306;DHT22;5198;52.382;9.020;2022-11-12T15:14:37;11.10;99.90
10306;DHT22;5198;52.382;9.020;2022-11-12T15:18:40;11.00;99.90
10306;DHT22;5198;52.382;9.020;2022-11-12T15:22:47;10.90;99.90
10306;DHT22;5198;52.382;9.020;2022-11-12T15:26:50;10.80;99.90
10306;DHT22;5198;52.382;9.020;2022-11-12T15:31:04;10.70;99.90
10306;DHT22;5198;52.382;9.020;2022-11-12T15:35:18;10.60;99.90
10306;DHT22;5198;52.382;9.020;2022-11-12T15:39:21;10.50;99.90
10306;DHT22;5198;52.382;9.020;2022-11-12T15:43:27;10.40;99.90
10306;DHT22;5198;52.382;9.020;2022-11-12T15:47:32;10.30;99.90
10306;DHT22;5198;52.382;9.020;2022-11-12T15:51:35;10.10;99.90
10306;DHT22;5198;52.382;9.020;2022-11-12T15:55:38;10.00;99.90
10306;DHT22;5198;52.382;9.020;2022-11-12T15:59:41;9.90;99.90
10306;DHT22;5198;52.382;9.020;2022-11-12T16:03:46;9.70;99.90
10306;DHT22;5198;52.382;9.020;2022-11-12T16:07:49;9.60;99.90
10306;DHT22;5198;52.382;9.020;2022-11-12T16:11:52;9.50;99.90
10306;DHT22;5198;52.382;9.020;2022-11-12T16:15:57;9.40;99.90
10306;DHT22;5198;52.382;9.020;2022-11-12T16:20:04;9.30;99.90
10306;DHT22;5198;52.382;9.020;2022-11-12T16:24:07;9.20;99.90
10306;DHT22;5198;52.382;9.020;2022-11-12T16:28:11;9.10;99.90
10306;DHT22;5198;52.382;9.020;2022-11-12T16:32:15;9.00;99.90
10306;DHT22;5198;52.382;9.020;2022-11-12T16:36:19;8.90;99.90
10306;DHT22;5198;52.382;9.020;2022-11-12T16:40:23;8.70;99.90
10306;DHT22;5198;52.382;9.020;2022-11-12T16:44:26;8.60;99.90
10306;DHT22;5198;52.382;9.020;2022-11-12T16:48:29;8.50;99.90
10306;DHT22;5198;52.382;9.020;2022-11-12T16:52:34;8.30;99.90
10306;DHT22;5198;52.382;9.020;2022-11-12T16:56:39;8.30;99.90
10306;DHT22;5198;52.382;9.020;2022-11-12T17:00:43;8.20;99.90
10306;DHT22;5198;52.382;9.020;2022-11-12T17:04:46;8.10;99.90
10306;DHT22;5198;52.382;9.020;2022-11-12T17:08:53;8.00;99.90
10306;DHT22;5198;52.382;9.020;2022-11-12T17:12:57;8.00;99.90
10306;DHT22;5198;52.382;9.020;2022-11-12T17:17:03;7.90;99.90
10306;DHT22;5198;52.382;9.020;2022-11-12T17:21:09;7.90;99.90
10306;DHT22;5198;52.382;9.020;2022-11-12T17:25:15;7.80;99.90
10306;DHT22;5198;52.382;9.020;2022-11-12T17:29:18;7.70;99.90
10306;DHT22;5198;52.382;9.020;2022-11-12T17:33:21;7.60;99.90
10306;DHT22;5198;52.382;9.020;2022-11-12T17:37:24;7.50;99.90
10306;DHT22;5198;52.382;9.020;2022-11-12T17:41:28;7.40;99.90
10306;DHT22;5198;52.382;9.020;2022-11-12T17:45:31;7.30;99.90
10306;DHT22;5198;52.382;9.020;2022-11-12T17:49:35;7.10;99.90
10306;DHT22;5198;52.382;9.020;2022-11-12T17:53:38;7.00;99.90
10306;DHT22;5198;52.382;9.020;2022-11-12T17:57:42;6.90;99.90
10306;DHT22;5198;52.382;9.020;2022-11-12T18:01:45;6.80;99.90
10306;DHT22;5198;52.382;9.020;2022-11-12T18:05:54;6.80;99.90
10306;DHT22;5198;52.382;9.020;2022-11-12T18:09:58;6.70;99.90
10306;DHT22;5198;52.382;9.020;2022-11-12T18:14:06;6.60;99.90
10306;DHT22;5198;52.382;9.020;2022-11-12T18:18:09;6.60;99.90
10306;DHT22;5198;52.382;9.020;2022-11-12T18:22:12;6.50;99.90
10306;DHT22;5198;52.382;9.020;2022-11-12T18:26:16;6.40;99.90
10306;DHT22;5198;52.382;9.020;2022-11-12T18:30:21;6.40;99.90
10306;DHT22;5198;52.382;9.020;2022-11-12T18:34:24;6.30;99.90
10306;DHT22;5198;52.382;9.020;2022-11-12T18:38:27;6.20;99.90
10306;DHT22;5198;52.382;9.020;2022-11-12T18:42:30;6.10;99.90
10306;DHT22;5198;52.382;9.020;2022-11-12T18:46:34;6.10;99.90
10306;DHT22;5198;52.382;9.020;2022-11-12T18:50:37;6.00;99.90
10306;DHT22;5198;52.382;9.020;2022-11-12T18:54:40;5.90;99.90
10306;DHT22;5198;52.382;9.020;2022-11-12T18:58:43;5.80;99.90
10306;DHT22;5198;52.382;9.020;2022-11-12T19:02:47;5.70;99.90
10306;DHT22;5198;52.382;9.020;2022-11-12T19:06:50;5.70;99.90
10306;DHT22;5198;52.382;9.020;2022-11-12T19:10:57;5.60;99.90
10306;DHT22;5198;52.382;9.020;2022-11-12T19:15:00;5.50;99.90
10306;DHT22;5198;52.382;9.020;2022-11-12T19:19:04;5.50;99.90
10306;DHT22;5198;52.382;9.020;2022-11-12T19:23:07;5.40;99.90
10306;DHT22;5198;52.382;9.020;2022-11-12T19:27:10;5.30;99.90
10306;DHT22;5198;52.382;9.020;2022-11-12T19:31:14;5.30;99.90
10306;DHT22;5198;52.382;9.020;2022-11-12T19:35:18;5.30;99.90
10306;DHT22;5198;52.382;9.020;2022-11-12T19:39:21;5.20;99.90
10306;DHT22;5198;52.382;9.020;2022-11-12T19:43:24;5.20;99.90
10306;DHT22;5198;52.382;9.020;2022-11-12T19:47:27;5.20;99.90
10306;DHT22;5198;52.382;9.020;2022-11-12T19:51:31;5.20;99.90
10306;DHT22;5198;52.382;9.020;2022-11-12T19:55:34;5.20;99.90
10306;DHT22;5198;52.382;9.020;2022-11-12T19:59:40;5.20;99.90
10306;DHT22;5198;52.382;9.020;2022-11-12T20:03:43;5.20;99.90
10306;DHT22;5198;52.382;9.020;2022-11-12T20:07:48;5.20;99.90
10306;DHT22;5198;52.382;9.020;2022-11-12T20:11:51;5.20;99.90
10306;DHT22;5198;52.382;9.020;2022-11-12T20:15:54;5.20;99.90
10306;DHT22;5198;52.382;9.020;2022-11-12T20:19:57;5.20;99.90
10306;DHT22;5198;52.382;9.020;2022-11-12T20:24:02;5.30;99.90
10306;DHT22;5198;52.382;9.020;2022-11-12T20:28:05;5.30;99.90
10306;DHT22;5198;52.382;9.020;2022-11-12T20:32:08;5.30;99.90
10306;DHT22;5198;52.382;9.020;2022-11-12T20:36:12;5.30;99.90
10306;DHT22;5198;52.382;9.020;2022-11-12T20:40:16;5.30;99.90
10306;DHT22;5198;52.382;9.020;2022-11-12T20:44:19;5.30;99.90
10306;DHT22;5198;52.382;9.020;2022-11-12T20:48:22;5.30;99.90
10306;DHT22;5198;52.382;9.020;2022-11-12T20:52:25;5.30;99.90
10306;DHT22;5198;52.382;9.020;2022-11-12T20:56:30;5.30;99.90
10306;DHT22;5198;52.382;9.020;2022-11-12T21:00:33;5.30;99.90
10306;DHT22;5198;52.382;9.020;2022-11-12T21:04:36;5.30;99.90
10306;DHT22;5198;52.382;9.020;2022-11-12T21:08:38;5.30;99.90
10306;DHT22;5198;52.382;9.020;2022-11-12T21:12:43;5.30;99.90
10306;DHT22;5198;52.382;9.020;2022-11-12T21:16:46;5.30;99.90
10306;DHT22;5198;52.382;9.020;2022-11-12T21:20:49;5.30;99.90
10306;DHT22;5198;52.382;9.020;2022-11-12T21:24:53;5.30;99.90
10306;DHT22;5198;52.382;9.020;2022-11-12T21:28:57;5.30;99.90
10306;DHT22;5198;52.382;9.020;2022-11-12T21:33:00;5.30;99.90
10306;DHT22;5198;52.382;9.020;2022-11-12T21:37:03;5.30;99.90
10306;DHT22;5198;52.382;9.020;2022-11-12T21:41:06;5.30;99.90
10306;DHT22;5198;52.382;9.020;2022-11-12T21:45:10;5.30;99.90
10306;DHT22;5198;52.382;9.020;2022-11-12T21:49:14;5.20;99.90
10306;DHT22;5198;52.382;9.020;2022-11-12T21:53:17;5.20;99.90
10306;DHT22;5198;52.382;9.020;2022-11-12T21:57:19;5.20;99.90
10306;DHT22;5198;52.382;9.020;2022-11-12T22:01:24;5.10;99.90
10306;DHT22;5198;52.382;9.020;2022-11-12T22:05:27;5.10;99.90
10306;DHT22;5198;52.382;9.020;2022-11-12T22:09:30;5.10;99.90
10306;DHT22;5198;52.382;9.020;2022-11-12T22:13:33;5.00;99.90
10306;DHT22;5198;52.382;9.020;2022-11-12T22:17:37;5.00;99.90
10306;DHT22;5198;52.382;9.020;2022-11-12T22:21:40;5.00;99.90
10306;DHT22;5198;52.382;9.020;2022-11-12T22:25:44;5.00;99.90
10306;DHT22;5198;52.382;9.020;2022-11-12T22:29:48;5.00;99.90
10306;DHT22;5198;52.382;9.020;2022-11-12T22:33:53;5.00;99.90
10306;DHT22;5198;52.382;9.020;2022-11-12T22:37:57;5.00;99.90
10306;DHT22;5198;52.382;9.020;2022-11-12T22:42:00;5.00;99.90
10306;DHT22;5198;52.382;9.020;2022-11-12T22:46:03;5.00;99.90
10306;DHT22;5198;52.382;9.020;2022-11-12T22:50:08;4.90;99.90
10306;DHT22;5198;52.382;9.020;2022-11-12T22:54:18;4.90;99.90
10306;DHT22;5198;52.382;9.020;2022-11-12T22:58:22;4.90;99.90
10306;DHT22;5198;52.382;9.020;2022-11-12T23:02:26;4.90;99.90
10306;DHT22;5198;52.382;9.020;2022-11-12T23:06:31;4.90;99.90
10306;DHT22;5198;52.382;9.020;2022-11-12T23:10:34;4.90;99.90
10306;DHT22;5198;52.382;9.020;2022-11-12T23:14:42;4.90;99.90
10306;DHT22;5198;52.382;9.020;2022-11-12T23:18:45;4.90;99.90
10306;DHT22;5198;52.382;9.020;2022-11-12T23:22:49;4.90;99.90
10306;DHT22;5198;52.382;9.020;2022-11-12T23:26:52;4.90;99.90
10306;DHT22;5198;52.382;9.020;2022-11-12T23:30:55;4.80;99.90
10306;DHT22;5198;52.382;9.020;2022-11-12T23:34:59;4.80;99.90
10306;DHT22;5198;52.382;9.020;2022-11-12T23:39:03;4.80;99.90
10306;DHT22;5198;52.382;9.020;2022-11-12T23:43:06;4.80;99.90
10306;DHT22;5198;52.382;9.020;2022-11-12T23:47:09;4.80;99.90
10306;DHT22;5198;52.382;9.020;2022-11-12T23:51:13;4.80;99.90
10306;DHT22;5198;52.382;9.020;2022-11-12T23:55:17;4.70;99.90
10306;DHT22;5198;52.382;9.020;2022-11-12T23:59:20;4.70;99.90
